sensor_id;sensor_type;location;lat;lon;timestamp;temperature;humidity
44477;DHT22;30180;44.788;10.366;2023-03-01T00:01:24;17.20;56.60
44477;DHT22;30180;44.788;10.366;2023-03-01T00:03:53;17.20;56.70
44477;DHT22;30180;44.788;10.366;2023-03-01T00:06:22;17.20;56.70
44477;DHT22;30180;44.788;10.366;2023-03-01T00:08:51;17.20;56.60
44477;DHT22;30180;44.788;10.366;2023-03-01T00:11:22;17.20;56.60
44477;DHT22;30180;44.788;10.366;2023-03-01T00:13:53;17.20;56.70
44477;DHT22;30180;44.788;10.366;2023-03-01T00:16:23;17.20;56.70
44477;DHT22;30180;44.788;10.366;2023-03-01T00:18:51;17.10;56.60
44477;DHT22;30180;44.788;10.366;2023-03-01T00:21:20;17.20;56.60
44477;DHT22;30180;44.788;10.366;2023-03-01T00:23:49;17.20;56.70
44477;DHT22;30180;44.788;10.366;2023-03-01T00:26:19;17.10;56.60
44477;DHT22;30180;44.788;10.366;2023-03-01T00:28:49;17.10;56.60
44477;DHT22;30180;44.788;10.366;2023-03-01T00:31:19;17.10;56.60
44477;DHT22;30180;44.788;10.366;2023-03-01T00:33:51;17.10;56.60
44477;DHT22;30180;44.788;10.366;2023-03-01T00:36:19;17.10;56.60
44477;DHT22;30180;44.788;10.366;2023-03-01T00:38:47;17.10;56.60
44477;DHT22;30180;44.788;10.366;2023-03-01T00:41:17;17.10;56.60
44477;DHT22;30180;44.788;10.366;2023-03-01T00:43:46;17.10;56.60
44477;DHT22;30180;44.788;10.366;2023-03-01T00:46:17;17.10;56.60
44477;DHT22;30180;44.788;10.366;2023-03-01T00:48:46;17.00;56.50
44477;DHT22;30180;44.788;10.366;2023-03-01T00:51:16;17.10;56.60
44477;DHT22;30180;44.788;10.366;2023-03-01T00:53:45;17.10;56.60
44477;DHT22;30180;44.788;10.366;2023-03-01T00:56:14;17.00;56.50
44477;DHT22;30180;44.788;10.366;2023-03-01T00:58:42;17.10;56.60
44477;DHT22;30180;44.788;10.366;2023-03-01T01:01:13;17.10;56.60
44477;DHT22;30180;44.788;10.366;2023-03-01T01:03:47;17.00;56.50
44477;DHT22;30180;44.788;10.366;2023-03-01T01:06:18;17.00;56.50
44477;DHT22;30180;44.788;10.366;2023-03-01T01:08:47;17.00;56.50
44477;DHT22;30180;44.788;10.366;2023-03-01T01:11:16;17.00;56.50
44477;DHT22;30180;44.788;10.366;2023-03-01T01:13:45;17.00;56.50
44477;DHT22;30180;44.788;10.366;2023-03-01T01:16:15;17.00;56.50
44477;DHT22;30180;44.788;10.366;2023-03-01T01:18:46;17.00;56.60
44477;DHT22;30180;44.788;10.366;2023-03-01T01:21:15;17.00;56.50
44477;DHT22;30180;44.788;10.366;2023-03-01T01:23:45;17.00;56.60
44477;DHT22;30180;44.788;10.366;2023-03-01T01:26:15;17.00;56.60
44477;DHT22;30180;44.788;10.366;2023-03-01T01:28:43;17.00;56.60
44477;DHT22;30180;44.788;10.366;2023-03-01T01:31:11;17.00;56.60
44477;DHT22;30180;44.788;10.366;2023-03-01T01:33:40;17.00;56.60
44477;DHT22;30180;44.788;10.366;2023-03-01T01:36:10;17.00;56.60
44477;DHT22;30180;44.788;10.366;2023-03-01T01:38:39;16.90;56.50
44477;DHT22;30180;44.788;10.366;2023-03-01T01:41:10;17.00;56.50
44477;DHT22;30180;44.788;10.366;2023-03-01T01:43:42;16.90;56.50
44477;DHT22;30180;44.788;10.366;2023-03-01T01:46:19;16.90;56.50
44477;DHT22;30180;44.788;10.366;2023-03-01T01:48:53;16.90;56.50
44477;DHT22;30180;44.788;10.366;2023-03-01T01:51:25;17.00;56.60
44477;DHT22;30180;44.788;10.366;2023-03-01T01:53:58;16.90;56.50
44477;DHT22;30180;44.788;10.366;2023-03-01T01:56:28;16.90;56.50
44477;DHT22;30180;44.788;10.366;2023-03-01T01:58:58;16.90;56.50
44477;DHT22;30180;44.788;10.366;2023-03-01T02:01:26;16.90;56.50
44477;DHT22;30180;44.788;10.366;2023-03-01T02:03:54;16.90;56.50
44477;DHT22;30180;44.788;10.366;2023-03-01T02:06:27;16.90;56.50
44477;DHT22;30180;44.788;10.366;2023-03-01T02:08:59;16.90;56.50
44477;DHT22;30180;44.788;10.366;2023-03-01T02:11:30;16.90;56.50
44477;DHT22;30180;44.788;10.366;2023-03-01T02:13:59;16.90;56.50
44477;DHT22;30180;44.788;10.366;2023-03-01T02:16:27;16.90;56.50
44477;DHT22;30180;44.788;10.366;2023-03-01T02:18:57;16.90;56.50
44477;DHT22;30180;44.788;10.366;2023-03-01T02:21:41;16.90;56.50
44477;DHT22;30180;44.788;10.366;2023-03-01T02:24:19;16.80;56.50
44477;DHT22;30180;44.788;10.366;2023-03-01T02:26:52;16.90;56.50
44477;DHT22;30180;44.788;10.366;2023-03-01T02:29:23;16.80;56.50
44477;DHT22;30180;44.788;10.366;2023-03-01T02:31:52;16.80;56.50
44477;DHT22;30180;44.788;10.366;2023-03-01T02:34:23;16.80;56.50
44477;DHT22;30180;44.788;10.366;2023-03-01T02:36:57;16.80;56.50
44477;DHT22;30180;44.788;10.366;2023-03-01T02:39:30;16.80;56.50
44477;DHT22;30180;44.788;10.366;2023-03-01T02:41:59;16.80;56.50
44477;DHT22;30180;44.788;10.366;2023-03-01T02:44:30;16.80;56.50
44477;DHT22;30180;44.788;10.366;2023-03-01T02:47:01;16.80;57.20
44477;DHT22;30180;44.788;10.366;2023-03-01T02:49:32;16.80;56.50
44477;DHT22;30180;44.788;10.366;2023-03-01T02:54:58;16.80;56.50
44477;DHT22;30180;44.788;10.366;2023-03-01T02:57:28;16.80;56.50
44477;DHT22;30180;44.788;10.366;2023-03-01T03:00:02;16.80;56.50
44477;DHT22;30180;44.788;10.366;2023-03-01T03:02:34;16.80;56.50
44477;DHT22;30180;44.788;10.366;2023-03-01T03:05:09;16.80;56.50
44477;DHT22;30180;44.788;10.366;2023-03-01T03:07:40;16.70;56.40
44477;DHT22;30180;44.788;10.366;2023-03-01T03:10:11;16.70;56.40
44477;DHT22;30180;44.788;10.366;2023-03-01T03:12:39;16.70;56.40
44477;DHT22;30180;44.788;10.366;2023-03-01T03:15:10;16.70;56.40
44477;DHT22;30180;44.788;10.366;2023-03-01T03:17:41;16.70;56.40
44477;DHT22;30180;44.788;10.366;2023-03-01T03:20:14;16.70;56.50
44477;DHT22;30180;44.788;10.366;2023-03-01T03:22:46;16.70;56.40
44477;DHT22;30180;44.788;10.366;2023-03-01T03:25:15;16.70;56.40
44477;DHT22;30180;44.788;10.366;2023-03-01T03:27:44;16.70;56.40
44477;DHT22;30180;44.788;10.366;2023-03-01T03:30:16;16.70;56.50
44477;DHT22;30180;44.788;10.366;2023-03-01T03:32:47;16.70;56.50
44477;DHT22;30180;44.788;10.366;2023-03-01T03:35:20;16.70;56.50
44477;DHT22;30180;44.788;10.366;2023-03-01T03:37:49;16.70;56.40
44477;DHT22;30180;44.788;10.366;2023-03-01T03:40:35;16.70;56.50
44477;DHT22;30180;44.788;10.366;2023-03-01T03:43:05;16.70;56.50
44477;DHT22;30180;44.788;10.366;2023-03-01T03:45:35;16.70;56.50
44477;DHT22;30180;44.788;10.366;2023-03-01T03:48:05;16.70;56.50
44477;DHT22;30180;44.788;10.366;2023-03-01T03:50:35;16.70;56.50
44477;DHT22;30180;44.788;10.366;2023-03-01T03:53:06;16.60;56.40
44477;DHT22;30180;44.788;10.366;2023-03-01T03:55:34;16.70;56.50
44477;DHT22;30180;44.788;10.366;2023-03-01T03:58:07;16.60;56.40
44477;DHT22;30180;44.788;10.366;2023-03-01T04:00:39;16.70;56.50
44477;DHT22;30180;44.788;10.366;2023-03-01T04:03:08;16.60;56.40
44477;DHT22;30180;44.788;10.366;2023-03-01T04:05:37;16.60;56.40
44477;DHT22;30180;44.788;10.366;2023-03-01T04:08:06;16.70;56.40
44477;DHT22;30180;44.788;10.366;2023-03-01T04:10:36;16.60;56.40
44477;DHT22;30180;44.788;10.366;2023-03-01T04:13:06;16.60;56.40
44477;DHT22;30180;44.788;10.366;2023-03-01T04:15:35;16.60;56.40
44477;DHT22;30180;44.788;10.366;2023-03-01T04:18:05;16.60;56.40
44477;DHT22;30180;44.788;10.366;2023-03-01T04:20:35;16.60;56.40
44477;DHT22;30180;44.788;10.366;2023-03-01T04:23:05;16.60;56.50
44477;DHT22;30180;44.788;10.366;2023-03-01T04:25:41;16.60;56.50
44477;DHT22;30180;44.788;10.366;2023-03-01T04:28:10;16.60;56.50
44477;DHT22;30180;44.788;10.366;2023-03-01T04:30:38;16.60;56.50
44477;DHT22;30180;44.788;10.366;2023-03-01T04:33:10;16.60;56.50
44477;DHT22;30180;44.788;10.366;2023-03-01T04:35:39;16.70;56.60
44477;DHT22;30180;44.788;10.366;2023-03-01T04:38:08;16.70;56.60
44477;DHT22;30180;44.788;10.366;2023-03-01T04:40:37;16.70;56.50
44477;DHT22;30180;44.788;10.366;2023-03-01T04:43:05;16.70;56.60
44477;DHT22;30180;44.788;10.366;2023-03-01T04:45:33;16.70;56.60
44477;DHT22;30180;44.788;10.366;2023-03-01T04:48:03;16.70;57.20
44477;DHT22;30180;44.788;10.366;2023-03-01T04:50:33;16.70;56.60
44477;DHT22;30180;44.788;10.366;2023-03-01T04:53:01;16.70;56.60
44477;DHT22;30180;44.788;10.366;2023-03-01T04:55:30;16.80;56.70
44477;DHT22;30180;44.788;10.366;2023-03-01T04:57:58;16.80;56.60
44477;DHT22;30180;44.788;10.366;2023-03-01T05:00:26;16.80;56.70
44477;DHT22;30180;44.788;10.366;2023-03-01T05:02:56;16.80;56.70
44477;DHT22;30180;44.788;10.366;2023-03-01T05:05:26;16.80;56.70
44477;DHT22;30180;44.788;10.366;2023-03-01T05:07:58;16.70;56.60
44477;DHT22;30180;44.788;10.366;2023-03-01T05:10:28;16.80;56.70
44477;DHT22;30180;44.788;10.366;2023-03-01T05:12:57;16.90;56.70
44477;DHT22;30180;44.788;10.366;2023-03-01T05:15:26;16.90;56.70
44477;DHT22;30180;44.788;10.366;2023-03-01T05:17:57;16.90;56.70
44477;DHT22;30180;44.788;10.366;2023-03-01T05:20:27;16.90;56.70
44477;DHT22;30180;44.788;10.366;2023-03-01T05:22:58;16.90;56.70
44477;DHT22;30180;44.788;10.366;2023-03-01T05:25:26;16.90;56.70
44477;DHT22;30180;44.788;10.366;2023-03-01T05:28:00;17.00;56.80
44477;DHT22;30180;44.788;10.366;2023-03-01T05:30:31;17.00;56.70
44477;DHT22;30180;44.788;10.366;2023-03-01T05:32:59;17.00;56.70
44477;DHT22;30180;44.788;10.366;2023-03-01T05:35:28;17.00;56.70
44477;DHT22;30180;44.788;10.366;2023-03-01T05:38:01;17.00;56.70
44477;DHT22;30180;44.788;10.366;2023-03-01T05:40:29;17.00;56.60
44477;DHT22;30180;44.788;10.366;2023-03-01T05:42:57;17.00;56.60
44477;DHT22;30180;44.788;10.366;2023-03-01T05:45:27;17.00;56.60
44477;DHT22;30180;44.788;10.366;2023-03-01T05:47:55;17.00;56.60
44477;DHT22;30180;44.788;10.366;2023-03-01T05:50:25;17.00;56.60
44477;DHT22;30180;44.788;10.366;2023-03-01T05:52:59;17.00;56.60
44477;DHT22;30180;44.788;10.366;2023-03-01T05:55:29;17.00;56.60
44477;DHT22;30180;44.788;10.366;2023-03-01T05:57:59;17.00;56.60
44477;DHT22;30180;44.788;10.366;2023-03-01T06:00:29;17.00;56.60
44477;DHT22;30180;44.788;10.366;2023-03-01T06:02:58;17.00;56.50
44477;DHT22;30180;44.788;10.366;2023-03-01T06:05:27;17.00;56.60
44477;DHT22;30180;44.788;10.366;2023-03-01T06:08:00;17.00;56.50
44477;DHT22;30180;44.788;10.366;2023-03-01T06:10:29;17.00;56.50
44477;DHT22;30180;44.788;10.366;2023-03-01T06:12:57;17.00;56.50
44477;DHT22;30180;44.788;10.366;2023-03-01T06:15:26;17.00;56.50
44477;DHT22;30180;44.788;10.366;2023-03-01T06:17:55;17.00;56.50
44477;DHT22;30180;44.788;10.366;2023-03-01T06:20:27;17.00;56.40
44477;DHT22;30180;44.788;10.366;2023-03-01T06:22:56;17.00;56.40
44477;DHT22;30180;44.788;10.366;2023-03-01T06:25:26;17.00;56.40
44477;DHT22;30180;44.788;10.366;2023-03-01T06:27:55;17.00;56.40
44477;DHT22;30180;44.788;10.366;2023-03-01T06:30:25;17.00;56.40
44477;DHT22;30180;44.788;10.366;2023-03-01T06:32:53;17.00;56.30
44477;DHT22;30180;44.788;10.366;2023-03-01T06:35:28;17.00;56.30
44477;DHT22;30180;44.788;10.366;2023-03-01T06:37:58;17.00;56.30
44477;DHT22;30180;44.788;10.366;2023-03-01T06:40:29;17.00;56.30
44477;DHT22;30180;44.788;10.366;2023-03-01T06:42:57;17.00;56.40
44477;DHT22;30180;44.788;10.366;2023-03-01T06:45:28;17.00;56.30
44477;DHT22;30180;44.788;10.366;2023-03-01T06:48:04;17.00;56.30
44477;DHT22;30180;44.788;10.366;2023-03-01T06:50:32;17.00;56.30
44477;DHT22;30180;44.788;10.366;2023-03-01T06:53:01;17.00;56.30
44477;DHT22;30180;44.788;10.366;2023-03-01T06:55:31;16.90;56.30
44477;DHT22;30180;44.788;10.366;2023-03-01T06:58:00;17.00;56.40
44477;DHT22;30180;44.788;10.366;2023-03-01T07:00:29;17.00;56.30
44477;DHT22;30180;44.788;10.366;2023-03-01T07:02:59;17.00;56.30
44477;DHT22;30180;44.788;10.366;2023-03-01T07:05:28;17.00;56.30
44477;DHT22;30180;44.788;10.366;2023-03-01T07:07:56;17.00;56.30
44477;DHT22;30180;44.788;10.366;2023-03-01T07:10:25;17.00;56.20
44477;DHT22;30180;44.788;10.366;2023-03-01T07:12:56;17.00;56.30
44477;DHT22;30180;44.788;10.366;2023-03-01T07:15:24;17.00;56.30
44477;DHT22;30180;44.788;10.366;2023-03-01T07:17:52;17.00;56.30
44477;DHT22;30180;44.788;10.366;2023-03-01T07:20:21;17.00;56.20
44477;DHT22;30180;44.788;10.366;2023-03-01T07:22:51;17.00;56.30
44477;DHT22;30180;44.788;10.366;2023-03-01T07:25:20;17.00;56.20
44477;DHT22;30180;44.788;10.366;2023-03-01T07:27:49;17.00;56.30
44477;DHT22;30180;44.788;10.366;2023-03-01T07:30:20;17.00;56.20
44477;DHT22;30180;44.788;10.366;2023-03-01T07:32:49;17.00;56.30
44477;DHT22;30180;44.788;10.366;2023-03-01T07:35:21;17.00;56.30
44477;DHT22;30180;44.788;10.366;2023-03-01T07:37:49;17.00;56.80
44477;DHT22;30180;44.788;10.366;2023-03-01T07:40:18;17.00;56.20
44477;DHT22;30180;44.788;10.366;2023-03-01T07:42:46;17.00;56.20
44477;DHT22;30180;44.788;10.366;2023-03-01T07:45:14;17.00;56.20
44477;DHT22;30180;44.788;10.366;2023-03-01T07:47:44;17.00;56.20
44477;DHT22;30180;44.788;10.366;2023-03-01T07:50:12;17.00;56.20
44477;DHT22;30180;44.788;10.366;2023-03-01T07:52:44;17.00;56.20
44477;DHT22;30180;44.788;10.366;2023-03-01T07:55:12;17.00;56.30
44477;DHT22;30180;44.788;10.366;2023-03-01T07:57:41;17.00;56.20
44477;DHT22;30180;44.788;10.366;2023-03-01T08:00:11;17.00;56.30
44477;DHT22;30180;44.788;10.366;2023-03-01T08:02:40;17.00;56.30
44477;DHT22;30180;44.788;10.366;2023-03-01T08:05:10;17.00;56.30
44477;DHT22;30180;44.788;10.366;2023-03-01T08:07:38;17.00;56.30
44477;DHT22;30180;44.788;10.366;2023-03-01T08:10:07;17.00;56.30
44477;DHT22;30180;44.788;10.366;2023-03-01T08:12:35;17.00;56.30
44477;DHT22;30180;44.788;10.366;2023-03-01T08:15:04;17.00;56.40
44477;DHT22;30180;44.788;10.366;2023-03-01T08:17:33;17.00;56.30
44477;DHT22;30180;44.788;10.366;2023-03-01T08:20:02;17.00;56.30
44477;DHT22;30180;44.788;10.366;2023-03-01T08:22:34;17.00;56.30
44477;DHT22;30180;44.788;10.366;2023-03-01T08:25:02;17.00;56.40
44477;DHT22;30180;44.788;10.366;2023-03-01T08:27:30;17.00;56.30
44477;DHT22;30180;44.788;10.366;2023-03-01T08:29:58;17.00;56.30
44477;DHT22;30180;44.788;10.366;2023-03-01T08:32:27;17.00;56.40
44477;DHT22;30180;44.788;10.366;2023-03-01T08:34:55;16.90;56.30
44477;DHT22;30180;44.788;10.366;2023-03-01T08:37:23;16.90;56.30
44477;DHT22;30180;44.788;10.366;2023-03-01T08:39:53;16.90;56.30
44477;DHT22;30180;44.788;10.366;2023-03-01T08:42:22;16.90;56.40
44477;DHT22;30180;44.788;10.366;2023-03-01T08:44:50;16.90;56.40
44477;DHT22;30180;44.788;10.366;2023-03-01T08:47:18;16.90;56.40
44477;DHT22;30180;44.788;10.366;2023-03-01T08:49:48;16.90;56.40
44477;DHT22;30180;44.788;10.366;2023-03-01T08:52:19;16.90;56.40
44477;DHT22;30180;44.788;10.366;2023-03-01T08:54:48;16.90;56.40
44477;DHT22;30180;44.788;10.366;2023-03-01T08:57:18;16.90;56.40
44477;DHT22;30180;44.788;10.366;2023-03-01T08:59:46;16.90;56.40
44477;DHT22;30180;44.788;10.366;2023-03-01T09:02:17;16.90;56.50
44477;DHT22;30180;44.788;10.366;2023-03-01T09:04:45;16.90;56.50
44477;DHT22;30180;44.788;10.366;2023-03-01T09:07:13;16.90;56.60
44477;DHT22;30180;44.788;10.366;2023-03-01T09:09:42;16.90;56.60
44477;DHT22;30180;44.788;10.366;2023-03-01T09:12:10;16.90;56.50
44477;DHT22;30180;44.788;10.366;2023-03-01T09:14:40;16.90;56.60
44477;DHT22;30180;44.788;10.366;2023-03-01T09:17:08;16.90;56.70
44477;DHT22;30180;44.788;10.366;2023-03-01T09:19:37;16.90;56.80
44477;DHT22;30180;44.788;10.366;2023-03-01T09:22:05;17.00;56.90
44477;DHT22;30180;44.788;10.366;2023-03-01T09:24:33;17.00;57.00
44477;DHT22;30180;44.788;10.366;2023-03-01T09:27:02;17.10;57.00
44477;DHT22;30180;44.788;10.366;2023-03-01T09:29:35;17.10;57.00
44477;DHT22;30180;44.788;10.366;2023-03-01T09:32:05;17.10;57.10
44477;DHT22;30180;44.788;10.366;2023-03-01T09:34:35;17.20;57.10
44477;DHT22;30180;44.788;10.366;2023-03-01T09:37:24;17.20;57.20
44477;DHT22;30180;44.788;10.366;2023-03-01T09:39:52;17.30;57.20
44477;DHT22;30180;44.788;10.366;2023-03-01T09:42:20;17.30;57.30
44477;DHT22;30180;44.788;10.366;2023-03-01T09:44:51;17.30;57.30
44477;DHT22;30180;44.788;10.366;2023-03-01T09:47:28;17.30;57.40
44477;DHT22;30180;44.788;10.366;2023-03-01T09:50:05;17.40;57.40
44477;DHT22;30180;44.788;10.366;2023-03-01T09:52:38;17.40;57.50
44477;DHT22;30180;44.788;10.366;2023-03-01T09:55:11;17.50;57.50
44477;DHT22;30180;44.788;10.366;2023-03-01T09:57:46;17.50;57.60
44477;DHT22;30180;44.788;10.366;2023-03-01T10:00:27;17.50;57.60
44477;DHT22;30180;44.788;10.366;2023-03-01T10:03:03;17.60;57.70
44477;DHT22;30180;44.788;10.366;2023-03-01T10:05:43;17.60;57.70
44477;DHT22;30180;44.788;10.366;2023-03-01T10:08:25;17.60;57.70
44477;DHT22;30180;44.788;10.366;2023-03-01T10:10:56;17.70;57.80
44477;DHT22;30180;44.788;10.366;2023-03-01T10:13:29;17.70;57.80
44477;DHT22;30180;44.788;10.366;2023-03-01T10:16:05;17.70;57.80
44477;DHT22;30180;44.788;10.366;2023-03-01T10:18:40;17.70;57.80
44477;DHT22;30180;44.788;10.366;2023-03-01T10:21:15;17.70;57.80
44477;DHT22;30180;44.788;10.366;2023-03-01T10:23:44;17.80;57.90
44477;DHT22;30180;44.788;10.366;2023-03-01T10:26:33;17.80;57.90
44477;DHT22;30180;44.788;10.366;2023-03-01T10:29:06;17.80;57.90
44477;DHT22;30180;44.788;10.366;2023-03-01T10:31:39;17.90;58.00
44477;DHT22;30180;44.788;10.366;2023-03-01T10:34:14;17.90;58.00
44477;DHT22;30180;44.788;10.366;2023-03-01T10:36:45;17.90;58.10
44477;DHT22;30180;44.788;10.366;2023-03-01T10:39:17;17.90;58.10
44477;DHT22;30180;44.788;10.366;2023-03-01T10:41:56;18.00;58.30
44477;DHT22;30180;44.788;10.366;2023-03-01T10:44:43;18.00;58.20
44477;DHT22;30180;44.788;10.366;2023-03-01T10:47:18;18.00;58.20
44477;DHT22;30180;44.788;10.366;2023-03-01T10:50:00;18.10;58.30
44477;DHT22;30180;44.788;10.366;2023-03-01T10:52:31;18.10;58.30
44477;DHT22;30180;44.788;10.366;2023-03-01T10:55:03;18.10;58.30
44477;DHT22;30180;44.788;10.366;2023-03-01T10:57:35;18.20;58.30
44477;DHT22;30180;44.788;10.366;2023-03-01T11:00:25;18.20;58.30
44477;DHT22;30180;44.788;10.366;2023-03-01T11:03:11;18.20;58.30
44477;DHT22;30180;44.788;10.366;2023-03-01T11:05:59;18.20;58.40
44477;DHT22;30180;44.788;10.366;2023-03-01T11:08:39;18.20;58.40
44477;DHT22;30180;44.788;10.366;2023-03-01T11:14:05;18.20;58.40
44477;DHT22;30180;44.788;10.366;2023-03-01T11:16:59;18.30;58.50
44477;DHT22;30180;44.788;10.366;2023-03-01T11:19:28;18.30;58.50
44477;DHT22;30180;44.788;10.366;2023-03-01T11:22:02;18.30;59.10
44477;DHT22;30180;44.788;10.366;2023-03-01T11:24:38;18.40;58.50
44477;DHT22;30180;44.788;10.366;2023-03-01T11:27:16;18.40;58.60
44477;DHT22;30180;44.788;10.366;2023-03-01T11:29:47;18.40;58.60
44477;DHT22;30180;44.788;10.366;2023-03-01T11:32:19;18.40;58.50
44477;DHT22;30180;44.788;10.366;2023-03-01T11:34:55;18.40;58.60
44477;DHT22;30180;44.788;10.366;2023-03-01T11:37:32;18.40;58.50
44477;DHT22;30180;44.788;10.366;2023-03-01T11:40:14;18.40;58.60
44477;DHT22;30180;44.788;10.366;2023-03-01T11:42:54;18.50;58.60
44477;DHT22;30180;44.788;10.366;2023-03-01T11:45:28;18.50;58.70
44477;DHT22;30180;44.788;10.366;2023-03-01T11:48:09;18.50;58.60
44477;DHT22;30180;44.788;10.366;2023-03-01T11:50:41;18.50;58.60
44477;DHT22;30180;44.788;10.366;2023-03-01T11:53:30;18.50;58.60
44477;DHT22;30180;44.788;10.366;2023-03-01T11:56:13;18.50;58.60
44477;DHT22;30180;44.788;10.366;2023-03-01T11:59:02;18.50;58.60
44477;DHT22;30180;44.788;10.366;2023-03-01T12:01:40;18.60;58.70
44477;DHT22;30180;44.788;10.366;2023-03-01T12:04:36;18.60;58.70
44477;DHT22;30180;44.788;10.366;2023-03-01T12:07:17;18.60;58.70
44477;DHT22;30180;44.788;10.366;2023-03-01T12:10:01;18.60;58.70
44477;DHT22;30180;44.788;10.366;2023-03-01T12:12:46;18.60;58.70
44477;DHT22;30180;44.788;10.366;2023-03-01T12:15:39;18.60;58.80
44477;DHT22;30180;44.788;10.366;2023-03-01T12:18:21;18.60;58.70
44477;DHT22;30180;44.788;10.366;2023-03-01T12:20:59;18.60;58.70
44477;DHT22;30180;44.788;10.366;2023-03-01T12:23:50;18.60;58.70
44477;DHT22;30180;44.788;10.366;2023-03-01T12:26:29;18.70;58.80
44477;DHT22;30180;44.788;10.366;2023-03-01T12:29:21;18.70;58.80
44477;DHT22;30180;44.788;10.366;2023-03-01T12:32:19;18.70;58.80
44477;DHT22;30180;44.788;10.366;2023-03-01T12:37:48;18.70;58.80
44477;DHT22;30180;44.788;10.366;2023-03-01T12:40:48;18.70;58.80
44477;DHT22;30180;44.788;10.366;2023-03-01T12:43:29;18.70;58.80
44477;DHT22;30180;44.788;10.366;2023-03-01T12:46:14;18.70;58.80
44477;DHT22;30180;44.788;10.366;2023-03-01T12:48:51;18.70;58.80
44477;DHT22;30180;44.788;10.366;2023-03-01T12:51:28;18.70;58.80
44477;DHT22;30180;44.788;10.366;2023-03-01T12:53:59;18.70;58.80
44477;DHT22;30180;44.788;10.366;2023-03-01T12:56:32;18.70;58.80
44477;DHT22;30180;44.788;10.366;2023-03-01T12:59:10;18.70;58.90
44477;DHT22;30180;44.788;10.366;2023-03-01T13:01:45;18.70;58.80
44477;DHT22;30180;44.788;10.366;2023-03-01T13:04:21;18.70;58.90
44477;DHT22;30180;44.788;10.366;2023-03-01T13:06:59;18.70;58.80
44477;DHT22;30180;44.788;10.366;2023-03-01T13:09:36;18.80;58.90
44477;DHT22;30180;44.788;10.366;2023-03-01T13:15:25;18.80;58.90
44477;DHT22;30180;44.788;10.366;2023-03-01T13:17:54;18.80;58.90
44477;DHT22;30180;44.788;10.366;2023-03-01T13:20:27;18.80;58.90
44477;DHT22;30180;44.788;10.366;2023-03-01T13:23:03;18.80;58.90
44477;DHT22;30180;44.788;10.366;2023-03-01T13:25:33;18.80;58.90
44477;DHT22;30180;44.788;10.366;2023-03-01T13:28:47;18.80;58.90
44477;DHT22;30180;44.788;10.366;2023-03-01T13:34:49;18.90;58.90
44477;DHT22;30180;44.788;10.366;2023-03-01T13:37:26;18.80;58.90
44477;DHT22;30180;44.788;10.366;2023-03-01T13:39:58;18.80;58.90
44477;DHT22;30180;44.788;10.366;2023-03-01T13:42:37;18.80;58.90
44477;DHT22;30180;44.788;10.366;2023-03-01T13:45:20;18.80;58.90
44477;DHT22;30180;44.788;10.366;2023-03-01T13:47:53;18.90;59.00
44477;DHT22;30180;44.788;10.366;2023-03-01T13:50:28;18.80;58.90
44477;DHT22;30180;44.788;10.366;2023-03-01T13:52:59;18.90;59.00
44477;DHT22;30180;44.788;10.366;2023-03-01T13:55:36;18.80;58.90
44477;DHT22;30180;44.788;10.366;2023-03-01T13:58:16;18.90;59.00
44477;DHT22;30180;44.788;10.366;2023-03-01T14:00:46;18.90;59.00
44477;DHT22;30180;44.788;10.366;2023-03-01T14:03:17;18.90;58.90
44477;DHT22;30180;44.788;10.366;2023-03-01T14:06:00;18.90;58.90
44477;DHT22;30180;44.788;10.366;2023-03-01T14:08:42;18.90;59.00
44477;DHT22;30180;44.788;10.366;2023-03-01T14:17:06;18.90;59.00
44477;DHT22;30180;44.788;10.366;2023-03-01T14:19:37;18.90;58.90
44477;DHT22;30180;44.788;10.366;2023-03-01T14:22:15;18.90;59.00
44477;DHT22;30180;44.788;10.366;2023-03-01T14:24:48;19.00;59.00
44477;DHT22;30180;44.788;10.366;2023-03-01T14:27:17;18.90;59.00
44477;DHT22;30180;44.788;10.366;2023-03-01T14:29:55;18.90;59.00
44477;DHT22;30180;44.788;10.366;2023-03-01T14:32:26;19.00;59.10
44477;DHT22;30180;44.788;10.366;2023-03-01T14:34:55;19.00;59.10
44477;DHT22;30180;44.788;10.366;2023-03-01T14:37:27;19.00;59.10
44477;DHT22;30180;44.788;10.366;2023-03-01T14:39:58;19.00;59.10
44477;DHT22;30180;44.788;10.366;2023-03-01T14:42:31;19.00;59.10
44477;DHT22;30180;44.788;10.366;2023-03-01T14:45:03;19.00;59.10
44477;DHT22;30180;44.788;10.366;2023-03-01T14:47:33;19.00;59.10
44477;DHT22;30180;44.788;10.366;2023-03-01T14:50:06;19.00;59.10
44477;DHT22;30180;44.788;10.366;2023-03-01T14:52:39;19.00;59.10
44477;DHT22;30180;44.788;10.366;2023-03-01T14:55:19;19.00;59.10
44477;DHT22;30180;44.788;10.366;2023-03-01T14:57:49;19.00;59.10
44477;DHT22;30180;44.788;10.366;2023-03-01T15:00:21;19.00;59.10
44477;DHT22;30180;44.788;10.366;2023-03-01T15:02:52;19.00;59.10
44477;DHT22;30180;44.788;10.366;2023-03-01T15:05:25;19.00;59.70
44477;DHT22;30180;44.788;10.366;2023-03-01T15:07:57;19.00;59.10
44477;DHT22;30180;44.788;10.366;2023-03-01T15:10:27;19.00;59.00
44477;DHT22;30180;44.788;10.366;2023-03-01T15:12:56;19.00;59.30
44477;DHT22;30180;44.788;10.366;2023-03-01T15:15:33;19.10;59.80
44477;DHT22;30180;44.788;10.366;2023-03-01T15:18:03;19.20;60.00
44477;DHT22;30180;44.788;10.366;2023-03-01T15:20:33;19.20;59.70
44477;DHT22;30180;44.788;10.366;2023-03-01T15:23:04;19.30;59.30
44477;DHT22;30180;44.788;10.366;2023-03-01T15:25:33;19.30;59.20
44477;DHT22;30180;44.788;10.366;2023-03-01T15:28:03;19.30;59.10
44477;DHT22;30180;44.788;10.366;2023-03-01T15:30:33;19.30;59.10
44477;DHT22;30180;44.788;10.366;2023-03-01T15:33:19;19.20;59.00
44477;DHT22;30180;44.788;10.366;2023-03-01T15:35:49;19.20;59.00
44477;DHT22;30180;44.788;10.366;2023-03-01T15:38:33;19.20;59.00
44477;DHT22;30180;44.788;10.366;2023-03-01T15:41:03;19.20;59.00
44477;DHT22;30180;44.788;10.366;2023-03-01T15:43:40;19.20;59.00
44477;DHT22;30180;44.788;10.366;2023-03-01T15:46:26;19.20;59.00
44477;DHT22;30180;44.788;10.366;2023-03-01T15:48:56;19.20;59.00
44477;DHT22;30180;44.788;10.366;2023-03-01T15:51:31;19.20;59.00
44477;DHT22;30180;44.788;10.366;2023-03-01T15:54:04;19.10;59.00
44477;DHT22;30180;44.788;10.366;2023-03-01T15:56:32;19.20;59.00
44477;DHT22;30180;44.788;10.366;2023-03-01T15:59:02;19.20;59.10
44477;DHT22;30180;44.788;10.366;2023-03-01T16:01:31;19.10;59.00
44477;DHT22;30180;44.788;10.366;2023-03-01T16:04:01;19.10;59.00
44477;DHT22;30180;44.788;10.366;2023-03-01T16:06:29;19.10;59.00
44477;DHT22;30180;44.788;10.366;2023-03-01T16:08:58;19.20;59.10